sensor_id;sensor_type;location;lat;lon;timestamp;temperature;humidity
36416;DHT22;22447;44.530;18.620;2024-01-25T00:01:19;2.70;99.90
36416;DHT22;22447;44.530;18.620;2024-01-25T00:03:45;2.80;99.90
36416;DHT22;22447;44.530;18.620;2024-01-25T00:06:11;2.70;99.90
36416;DHT22;22447;44.530;18.620;2024-01-25T00:08:37;2.80;99.90
36416;DHT22;22447;44.530;18.620;2024-01-25T00:11:03;2.80;99.90
36416;DHT22;22447;44.530;18.620;2024-01-25T00:13:30;2.80;99.90
36416;DHT22;22447;44.530;18.620;2024-01-25T00:15:55;2.80;99.90
36416;DHT22;22447;44.530;18.620;2024-01-25T00:18:21;2.70;99.90
36416;DHT22;22447;44.530;18.620;2024-01-25T00:20:47;2.70;99.90
36416;DHT22;22447;44.530;18.620;2024-01-25T00:23:13;2.90;99.90
36416;DHT22;22447;44.530;18.620;2024-01-25T00:25:39;3.00;99.90
36416;DHT22;22447;44.530;18.620;2024-01-25T00:28:05;2.90;99.90
36416;DHT22;22447;44.530;18.620;2024-01-25T00:30:31;2.80;99.90
36416;DHT22;22447;44.530;18.620;2024-01-25T00:32:57;2.90;99.90
36416;DHT22;22447;44.530;18.620;2024-01-25T00:35:24;3.00;99.90
36416;DHT22;22447;44.530;18.620;2024-01-25T00:37:50;3.10;99.90
36416;DHT22;22447;44.530;18.620;2024-01-25T00:40:17;3.10;99.90
36416;DHT22;22447;44.530;18.620;2024-01-25T00:42:46;3.20;99.90
36416;DHT22;22447;44.530;18.620;2024-01-25T00:45:22;3.20;99.90
36416;DHT22;22447;44.530;18.620;2024-01-25T00:47:50;3.00;99.90
36416;DHT22;22447;44.530;18.620;2024-01-25T00:50:16;3.00;99.90
36416;DHT22;22447;44.530;18.620;2024-01-25T00:52:46;3.10;99.90
36416;DHT22;22447;44.530;18.620;2024-01-25T00:55:12;3.10;99.90
36416;DHT22;22447;44.530;18.620;2024-01-25T00:57:39;3.10;99.90
36416;DHT22;22447;44.530;18.620;2024-01-25T01:00:05;3.10;99.90
36416;DHT22;22447;44.530;18.620;2024-01-25T01:02:36;3.10;99.90
36416;DHT22;22447;44.530;18.620;2024-01-25T01:05:03;3.10;99.90
36416;DHT22;22447;44.530;18.620;2024-01-25T01:07:29;3.10;99.90
36416;DHT22;22447;44.530;18.620;2024-01-25T01:09:55;3.20;99.90
36416;DHT22;22447;44.530;18.620;2024-01-25T01:12:21;3.20;99.90
36416;DHT22;22447;44.530;18.620;2024-01-25T01:14:47;3.20;99.90
36416;DHT22;22447;44.530;18.620;2024-01-25T01:17:14;3.20;99.90
36416;DHT22;22447;44.530;18.620;2024-01-25T01:19:40;3.10;99.90
36416;DHT22;22447;44.530;18.620;2024-01-25T01:22:06;3.10;99.90
36416;DHT22;22447;44.530;18.620;2024-01-25T01:24:31;3.10;99.90
36416;DHT22;22447;44.530;18.620;2024-01-25T01:26:57;3.10;99.90
36416;DHT22;22447;44.530;18.620;2024-01-25T01:29:24;3.30;99.90
36416;DHT22;22447;44.530;18.620;2024-01-25T01:31:50;3.40;99.90
36416;DHT22;22447;44.530;18.620;2024-01-25T01:34:17;3.40;99.90
36416;DHT22;22447;44.530;18.620;2024-01-25T01:36:43;3.50;99.90
36416;DHT22;22447;44.530;18.620;2024-01-25T01:39:10;3.60;99.90
36416;DHT22;22447;44.530;18.620;2024-01-25T01:41:36;3.50;99.90
36416;DHT22;22447;44.530;18.620;2024-01-25T01:44:02;3.60;99.90
36416;DHT22;22447;44.530;18.620;2024-01-25T01:46:39;3.60;99.90
36416;DHT22;22447;44.530;18.620;2024-01-25T01:49:11;3.50;99.90
36416;DHT22;22447;44.530;18.620;2024-01-25T01:51:37;3.40;99.90
36416;DHT22;22447;44.530;18.620;2024-01-25T01:54:07;3.30;99.90
36416;DHT22;22447;44.530;18.620;2024-01-25T01:56:33;3.30;99.90
36416;DHT22;22447;44.530;18.620;2024-01-25T01:59:04;3.40;99.90
36416;DHT22;22447;44.530;18.620;2024-01-25T02:01:30;3.40;99.90
36416;DHT22;22447;44.530;18.620;2024-01-25T02:03:56;3.40;99.90
36416;DHT22;22447;44.530;18.620;2024-01-25T02:06:23;3.40;99.90
36416;DHT22;22447;44.530;18.620;2024-01-25T02:08:50;3.50;99.90
36416;DHT22;22447;44.530;18.620;2024-01-25T02:11:19;3.50;99.90
36416;DHT22;22447;44.530;18.620;2024-01-25T02:13:45;3.40;99.90
36416;DHT22;22447;44.530;18.620;2024-01-25T02:16:13;3.40;99.90
36416;DHT22;22447;44.530;18.620;2024-01-25T02:18:41;3.30;99.90
36416;DHT22;22447;44.530;18.620;2024-01-25T02:21:07;3.20;99.90
36416;DHT22;22447;44.530;18.620;2024-01-25T02:23:33;3.20;99.90
36416;DHT22;22447;44.530;18.620;2024-01-25T02:25:59;3.20;99.90
36416;DHT22;22447;44.530;18.620;2024-01-25T02:28:25;3.20;99.90
36416;DHT22;22447;44.530;18.620;2024-01-25T02:30:51;3.30;99.90
36416;DHT22;22447;44.530;18.620;2024-01-25T02:33:17;3.40;99.90
36416;DHT22;22447;44.530;18.620;2024-01-25T02:35:43;3.30;99.90
36416;DHT22;22447;44.530;18.620;2024-01-25T02:38:09;3.20;99.90
36416;DHT22;22447;44.530;18.620;2024-01-25T02:40:35;3.20;99.90
36416;DHT22;22447;44.530;18.620;2024-01-25T02:43:01;3.10;99.90
36416;DHT22;22447;44.530;18.620;2024-01-25T02:45:26;3.00;99.90
36416;DHT22;22447;44.530;18.620;2024-01-25T02:47:52;3.10;99.90
36416;DHT22;22447;44.530;18.620;2024-01-25T02:50:18;3.00;99.90
36416;DHT22;22447;44.530;18.620;2024-01-25T02:52:44;3.00;99.90
36416;DHT22;22447;44.530;18.620;2024-01-25T02:55:10;3.10;99.90
36416;DHT22;22447;44.530;18.620;2024-01-25T02:57:36;3.10;99.90
36416;DHT22;22447;44.530;18.620;2024-01-25T03:00:02;3.20;99.90
36416;DHT22;22447;44.530;18.620;2024-01-25T03:02:28;3.10;99.90
36416;DHT22;22447;44.530;18.620;2024-01-25T03:04:54;3.10;99.90
36416;DHT22;22447;44.530;18.620;2024-01-25T03:07:20;3.10;99.90
36416;DHT22;22447;44.530;18.620;2024-01-25T03:09:46;3.10;99.90
36416;DHT22;22447;44.530;18.620;2024-01-25T03:12:12;3.00;99.90
36416;DHT22;22447;44.530;18.620;2024-01-25T03:14:37;3.10;99.90
36416;DHT22;22447;44.530;18.620;2024-01-25T03:17:03;3.00;99.90
36416;DHT22;22447;44.530;18.620;2024-01-25T03:19:29;3.00;99.90
36416;DHT22;22447;44.530;18.620;2024-01-25T03:21:55;2.90;99.90
36416;DHT22;22447;44.530;18.620;2024-01-25T03:24:22;2.90;99.90
36416;DHT22;22447;44.530;18.620;2024-01-25T03:26:48;2.90;99.90
36416;DHT22;22447;44.530;18.620;2024-01-25T03:29:14;2.90;99.90
36416;DHT22;22447;44.530;18.620;2024-01-25T03:31:40;3.00;99.90
36416;DHT22;22447;44.530;18.620;2024-01-25T03:34:06;3.10;99.90
36416;DHT22;22447;44.530;18.620;2024-01-25T03:36:32;3.10;99.90
36416;DHT22;22447;44.530;18.620;2024-01-25T03:38:58;3.10;99.90
36416;DHT22;22447;44.530;18.620;2024-01-25T03:41:24;3.00;99.90
36416;DHT22;22447;44.530;18.620;2024-01-25T03:43:50;3.10;99.90
36416;DHT22;22447;44.530;18.620;2024-01-25T03:46:17;3.00;99.90
36416;DHT22;22447;44.530;18.620;2024-01-25T03:48:43;2.90;99.90
36416;DHT22;22447;44.530;18.620;2024-01-25T03:51:09;3.00;99.90
36416;DHT22;22447;44.530;18.620;2024-01-25T03:53:35;3.20;99.90
36416;DHT22;22447;44.530;18.620;2024-01-25T03:56:00;3.30;99.90
36416;DHT22;22447;44.530;18.620;2024-01-25T03:58:26;3.30;99.90
36416;DHT22;22447;44.530;18.620;2024-01-25T04:00:52;3.30;99.90
36416;DHT22;22447;44.530;18.620;2024-01-25T04:03:18;3.00;99.90
36416;DHT22;22447;44.530;18.620;2024-01-25T04:05:44;3.00;99.90
36416;DHT22;22447;44.530;18.620;2024-01-25T04:08:10;2.90;99.90
36416;DHT22;22447;44.530;18.620;2024-01-25T04:10:36;2.90;99.90
36416;DHT22;22447;44.530;18.620;2024-01-25T04:13:02;2.90;99.90
36416;DHT22;22447;44.530;18.620;2024-01-25T04:15:30;2.90;99.90
36416;DHT22;22447;44.530;18.620;2024-01-25T04:17:56;3.00;99.90
36416;DHT22;22447;44.530;18.620;2024-01-25T04:20:22;3.00;99.90
36416;DHT22;22447;44.530;18.620;2024-01-25T04:22:48;2.90;99.90
36416;DHT22;22447;44.530;18.620;2024-01-25T04:25:15;3.00;99.90
36416;DHT22;22447;44.530;18.620;2024-01-25T04:27:41;3.10;99.90
36416;DHT22;22447;44.530;18.620;2024-01-25T04:30:07;3.10;99.90
36416;DHT22;22447;44.530;18.620;2024-01-25T04:32:33;3.10;99.90
36416;DHT22;22447;44.530;18.620;2024-01-25T04:35:00;3.20;99.90
36416;DHT22;22447;44.530;18.620;2024-01-25T04:37:26;3.20;99.90
36416;DHT22;22447;44.530;18.620;2024-01-25T04:39:52;3.20;99.90
36416;DHT22;22447;44.530;18.620;2024-01-25T04:42:18;3.20;99.90
36416;DHT22;22447;44.530;18.620;2024-01-25T04:44:44;3.30;99.90
36416;DHT22;22447;44.530;18.620;2024-01-25T04:47:10;3.20;99.90
36416;DHT22;22447;44.530;18.620;2024-01-25T04:49:36;3.20;99.90
36416;DHT22;22447;44.530;18.620;2024-01-25T04:52:02;3.10;99.90
36416;DHT22;22447;44.530;18.620;2024-01-25T04:54:28;3.20;99.90
36416;DHT22;22447;44.530;18.620;2024-01-25T04:56:54;3.10;99.90
36416;DHT22;22447;44.530;18.620;2024-01-25T04:59:20;3.20;99.90
36416;DHT22;22447;44.530;18.620;2024-01-25T05:01:46;3.20;99.90
36416;DHT22;22447;44.530;18.620;2024-01-25T05:04:12;3.30;99.90
36416;DHT22;22447;44.530;18.620;2024-01-25T05:06:38;3.30;99.90
36416;DHT22;22447;44.530;18.620;2024-01-25T05:09:04;3.30;99.90
36416;DHT22;22447;44.530;18.620;2024-01-25T05:11:30;3.30;99.90
36416;DHT22;22447;44.530;18.620;2024-01-25T05:13:55;3.20;99.90
36416;DHT22;22447;44.530;18.620;2024-01-25T05:16:21;3.30;99.90
36416;DHT22;22447;44.530;18.620;2024-01-25T05:18:47;3.30;99.90
36416;DHT22;22447;44.530;18.620;2024-01-25T05:21:13;3.40;99.90
36416;DHT22;22447;44.530;18.620;2024-01-25T05:23:39;3.50;99.90
36416;DHT22;22447;44.530;18.620;2024-01-25T05:26:06;3.50;99.90
36416;DHT22;22447;44.530;18.620;2024-01-25T05:28:31;3.50;99.90
36416;DHT22;22447;44.530;18.620;2024-01-25T05:30:57;3.50;99.90
36416;DHT22;22447;44.530;18.620;2024-01-25T05:33:23;3.60;99.90
36416;DHT22;22447;44.530;18.620;2024-01-25T05:35:49;3.60;99.90
36416;DHT22;22447;44.530;18.620;2024-01-25T05:38:15;3.60;99.90
36416;DHT22;22447;44.530;18.620;2024-01-25T05:40:42;3.60;99.90
36416;DHT22;22447;44.530;18.620;2024-01-25T05:43:08;3.70;99.90
36416;DHT22;22447;44.530;18.620;2024-01-25T05:45:34;3.70;99.90
36416;DHT22;22447;44.530;18.620;2024-01-25T05:47:59;3.40;99.90
36416;DHT22;22447;44.530;18.620;2024-01-25T05:50:25;3.50;99.90
36416;DHT22;22447;44.530;18.620;2024-01-25T05:52:51;3.40;99.90
36416;DHT22;22447;44.530;18.620;2024-01-25T05:55:17;3.50;99.90
36416;DHT22;22447;44.530;18.620;2024-01-25T05:57:43;3.50;99.90
36416;DHT22;22447;44.530;18.620;2024-01-25T06:00:12;3.60;99.90
36416;DHT22;22447;44.530;18.620;2024-01-25T06:02:39;3.50;99.90
36416;DHT22;22447;44.530;18.620;2024-01-25T06:05:04;3.60;99.90
36416;DHT22;22447;44.530;18.620;2024-01-25T06:07:30;3.60;99.90
36416;DHT22;22447;44.530;18.620;2024-01-25T06:09:56;3.60;99.90
36416;DHT22;22447;44.530;18.620;2024-01-25T06:12:22;3.60;99.90
36416;DHT22;22447;44.530;18.620;2024-01-25T06:14:48;3.70;99.90
36416;DHT22;22447;44.530;18.620;2024-01-25T06:17:14;3.70;99.90
36416;DHT22;22447;44.530;18.620;2024-01-25T06:19:40;3.80;99.90
36416;DHT22;22447;44.530;18.620;2024-01-25T06:22:05;3.70;99.90
36416;DHT22;22447;44.530;18.620;2024-01-25T06:25:07;3.70;99.90
36416;DHT22;22447;44.530;18.620;2024-01-25T06:31:43;3.70;99.90
36416;DHT22;22447;44.530;18.620;2024-01-25T06:34:09;3.60;99.90
36416;DHT22;22447;44.530;18.620;2024-01-25T06:36:35;3.70;99.90
36416;DHT22;22447;44.530;18.620;2024-01-25T06:39:01;3.80;99.90
36416;DHT22;22447;44.530;18.620;2024-01-25T06:41:28;3.90;99.90
36416;DHT22;22447;44.530;18.620;2024-01-25T06:43:54;3.80;99.90
36416;DHT22;22447;44.530;18.620;2024-01-25T06:46:20;3.80;99.90
36416;DHT22;22447;44.530;18.620;2024-01-25T06:48:46;3.70;99.90
36416;DHT22;22447;44.530;18.620;2024-01-25T06:51:12;3.80;99.90
36416;DHT22;22447;44.530;18.620;2024-01-25T06:53:39;3.80;99.90
36416;DHT22;22447;44.530;18.620;2024-01-25T06:56:05;3.80;99.90
36416;DHT22;22447;44.530;18.620;2024-01-25T06:58:32;3.80;99.90
36416;DHT22;22447;44.530;18.620;2024-01-25T07:00:58;3.80;99.90
36416;DHT22;22447;44.530;18.620;2024-01-25T07:03:24;3.80;99.90
36416;DHT22;22447;44.530;18.620;2024-01-25T07:05:50;3.90;99.90
36416;DHT22;22447;44.530;18.620;2024-01-25T07:08:16;3.90;99.90
36416;DHT22;22447;44.530;18.620;2024-01-25T07:10:43;3.90;99.90
36416;DHT22;22447;44.530;18.620;2024-01-25T07:13:09;3.90;99.90
36416;DHT22;22447;44.530;18.620;2024-01-25T07:15:35;4.00;99.90
36416;DHT22;22447;44.530;18.620;2024-01-25T07:18:01;4.00;99.90
36416;DHT22;22447;44.530;18.620;2024-01-25T07:20:27;3.90;99.90
36416;DHT22;22447;44.530;18.620;2024-01-25T07:22:53;3.70;99.90
36416;DHT22;22447;44.530;18.620;2024-01-25T07:25:20;3.80;99.90
36416;DHT22;22447;44.530;18.620;2024-01-25T07:27:47;3.70;99.90
36416;DHT22;22447;44.530;18.620;2024-01-25T07:30:13;3.80;99.90
36416;DHT22;22447;44.530;18.620;2024-01-25T07:32:39;4.00;99.90
36416;DHT22;22447;44.530;18.620;2024-01-25T07:35:08;4.00;99.90
36416;DHT22;22447;44.530;18.620;2024-01-25T07:37:38;4.00;99.90
36416;DHT22;22447;44.530;18.620;2024-01-25T07:40:05;4.10;99.90
36416;DHT22;22447;44.530;18.620;2024-01-25T07:42:32;4.20;99.90
36416;DHT22;22447;44.530;18.620;2024-01-25T07:48:47;5.50;99.90
36416;DHT22;22447;44.530;18.620;2024-01-25T07:51:13;5.90;99.90
36416;DHT22;22447;44.530;18.620;2024-01-25T07:53:39;6.10;99.90
36416;DHT22;22447;44.530;18.620;2024-01-25T07:56:08;6.20;99.90
36416;DHT22;22447;44.530;18.620;2024-01-25T07:58:35;6.20;99.90
36416;DHT22;22447;44.530;18.620;2024-01-25T08:01:05;6.00;99.90
36416;DHT22;22447;44.530;18.620;2024-01-25T08:03:32;5.70;99.90
36416;DHT22;22447;44.530;18.620;2024-01-25T08:05:59;5.80;99.90
36416;DHT22;22447;44.530;18.620;2024-01-25T08:08:25;6.10;99.90
36416;DHT22;22447;44.530;18.620;2024-01-25T08:10:51;7.30;99.90
36416;DHT22;22447;44.530;18.620;2024-01-25T08:13:17;8.70;99.90
36416;DHT22;22447;44.530;18.620;2024-01-25T08:15:43;8.90;99.90
36416;DHT22;22447;44.530;18.620;2024-01-25T08:18:09;8.80;99.90
36416;DHT22;22447;44.530;18.620;2024-01-25T08:20:37;8.90;99.90
36416;DHT22;22447;44.530;18.620;2024-01-25T08:23:03;9.50;99.90
36416;DHT22;22447;44.530;18.620;2024-01-25T08:25:29;10.50;99.10
36416;DHT22;22447;44.530;18.620;2024-01-25T08:27:55;11.40;96.60
36416;DHT22;22447;44.530;18.620;2024-01-25T08:30:21;12.30;94.90
36416;DHT22;22447;44.530;18.620;2024-01-25T08:32:47;13.10;92.90
36416;DHT22;22447;44.530;18.620;2024-01-25T08:35:12;13.30;90.50
36416;DHT22;22447;44.530;18.620;2024-01-25T08:37:38;13.20;87.70
36416;DHT22;22447;44.530;18.620;2024-01-25T08:40:06;13.20;89.00
36416;DHT22;22447;44.530;18.620;2024-01-25T08:42:32;12.90;87.20
36416;DHT22;22447;44.530;18.620;2024-01-25T08:44:58;13.30;88.20
36416;DHT22;22447;44.530;18.620;2024-01-25T08:47:24;12.60;87.40
36416;DHT22;22447;44.530;18.620;2024-01-25T08:49:50;12.40;85.90
36416;DHT22;22447;44.530;18.620;2024-01-25T08:52:16;12.30;89.60
36416;DHT22;22447;44.530;18.620;2024-01-25T08:54:41;12.00;90.30
36416;DHT22;22447;44.530;18.620;2024-01-25T08:57:07;11.50;88.70
36416;DHT22;22447;44.530;18.620;2024-01-25T08:59:34;11.50;90.30
36416;DHT22;22447;44.530;18.620;2024-01-25T09:02:06;11.20;90.00
36416;DHT22;22447;44.530;18.620;2024-01-25T09:04:32;10.90;91.50
36416;DHT22;22447;44.530;18.620;2024-01-25T09:06:59;11.00;93.10
36416;DHT22;22447;44.530;18.620;2024-01-25T09:09:25;11.10;92.30
36416;DHT22;22447;44.530;18.620;2024-01-25T09:11:51;11.60;92.00
36416;DHT22;22447;44.530;18.620;2024-01-25T09:14:17;12.10;90.90
36416;DHT22;22447;44.530;18.620;2024-01-25T09:16:43;12.60;88.70
36416;DHT22;22447;44.530;18.620;2024-01-25T09:19:08;13.60;90.30
36416;DHT22;22447;44.530;18.620;2024-01-25T09:21:37;14.50;86.60
36416;DHT22;22447;44.530;18.620;2024-01-25T09:24:03;15.50;81.90
36416;DHT22;22447;44.530;18.620;2024-01-25T09:26:29;16.10;78.10
36416;DHT22;22447;44.530;18.620;2024-01-25T09:28:55;15.20;75.30
36416;DHT22;22447;44.530;18.620;2024-01-25T09:31:21;15.00;75.50
36416;DHT22;22447;44.530;18.620;2024-01-25T09:33:47;14.40;78.40
36416;DHT22;22447;44.530;18.620;2024-01-25T09:36:12;14.40;79.60
36416;DHT22;22447;44.530;18.620;2024-01-25T09:38:38;14.20;79.40
36416;DHT22;22447;44.530;18.620;2024-01-25T09:41:04;13.90;80.00
36416;DHT22;22447;44.530;18.620;2024-01-25T09:43:30;13.60;79.10
36416;DHT22;22447;44.530;18.620;2024-01-25T09:45:56;13.10;79.70
36416;DHT22;22447;44.530;18.620;2024-01-25T09:48:23;12.60;83.30
36416;DHT22;22447;44.530;18.620;2024-01-25T09:50:55;12.70;84.30
36416;DHT22;22447;44.530;18.620;2024-01-25T09:53:22;12.60;83.80
36416;DHT22;22447;44.530;18.620;2024-01-25T09:56:09;12.30;86.50
36416;DHT22;22447;44.530;18.620;2024-01-25T09:58:43;12.30;87.20
36416;DHT22;22447;44.530;18.620;2024-01-25T10:01:15;12.40;87.80
36416;DHT22;22447;44.530;18.620;2024-01-25T10:03:47;12.40;89.30
36416;DHT22;22447;44.530;18.620;2024-01-25T10:06:14;12.30;89.10
36416;DHT22;22447;44.530;18.620;2024-01-25T10:08:41;12.30;90.00
36416;DHT22;22447;44.530;18.620;2024-01-25T10:11:07;12.10;89.50
36416;DHT22;22447;44.530;18.620;2024-01-25T10:13:49;12.20;89.70
36416;DHT22;22447;44.530;18.620;2024-01-25T10:16:18;12.30;90.30
36416;DHT22;22447;44.530;18.620;2024-01-25T10:18:46;12.30;89.70
36416;DHT22;22447;44.530;18.620;2024-01-25T10:21:13;12.50;90.70
36416;DHT22;22447;44.530;18.620;2024-01-25T10:23:40;12.60;89.20
36416;DHT22;22447;44.530;18.620;2024-01-25T10:26:09;12.60;87.30
36416;DHT22;22447;44.530;18.620;2024-01-25T10:28:35;12.30;86.30
36416;DHT22;22447;44.530;18.620;2024-01-25T10:31:02;12.80;90.00
36416;DHT22;22447;44.530;18.620;2024-01-25T10:33:30;13.60;82.80
36416;DHT22;22447;44.530;18.620;2024-01-25T10:35:57;15.10;83.10
36416;DHT22;22447;44.530;18.620;2024-01-25T10:38:31;15.90;77.20
36416;DHT22;22447;44.530;18.620;2024-01-25T10:41:01;17.30;70.90
36416;DHT22;22447;44.530;18.620;2024-01-25T10:43:31;17.90;66.00
36416;DHT22;22447;44.530;18.620;2024-01-25T10:45:57;18.70;64.00
36416;DHT22;22447;44.530;18.620;2024-01-25T10:48:27;19.50;57.40
36416;DHT22;22447;44.530;18.620;2024-01-25T10:50:55;19.40;54.40
36416;DHT22;22447;44.530;18.620;2024-01-25T10:53:21;18.50;54.90
36416;DHT22;22447;44.530;18.620;2024-01-25T10:55:49;18.60;57.60
36416;DHT22;22447;44.530;18.620;2024-01-25T10:58:20;18.30;55.30
36416;DHT22;22447;44.530;18.620;2024-01-25T11:00:54;18.00;56.20
36416;DHT22;22447;44.530;18.620;2024-01-25T11:03:29;18.20;54.20
36416;DHT22;22447;44.530;18.620;2024-01-25T11:06:09;18.20;54.20
36416;DHT22;22447;44.530;18.620;2024-01-25T11:08:38;18.70;54.30
36416;DHT22;22447;44.530;18.620;2024-01-25T11:11:11;18.70;51.80
36416;DHT22;22447;44.530;18.620;2024-01-25T11:13:43;18.10;50.70
36416;DHT22;22447;44.530;18.620;2024-01-25T11:16:17;17.90;52.60
36416;DHT22;22447;44.530;18.620;2024-01-25T11:18:48;19.10;54.00
36416;DHT22;22447;44.530;18.620;2024-01-25T11:21:43;19.70;47.90
36416;DHT22;22447;44.530;18.620;2024-01-25T11:24:19;19.60;47.80
36416;DHT22;22447;44.530;18.620;2024-01-25T11:26:46;19.50;47.20
36416;DHT22;22447;44.530;18.620;2024-01-25T11:29:16;19.70;47.80
36416;DHT22;22447;44.530;18.620;2024-01-25T11:31:46;19.50;46.30
36416;DHT22;22447;44.530;18.620;2024-01-25T11:34:13;19.20;47.60
36416;DHT22;22447;44.530;18.620;2024-01-25T11:36:41;19.50;46.10
36416;DHT22;22447;44.530;18.620;2024-01-25T11:39:12;19.20;45.40
36416;DHT22;22447;44.530;18.620;2024-01-25T11:41:38;18.90;47.90
36416;DHT22;22447;44.530;18.620;2024-01-25T11:44:04;19.10;47.10
36416;DHT22;22447;44.530;18.620;2024-01-25T11:46:30;18.70;47.40
36416;DHT22;22447;44.530;18.620;2024-01-25T11:48:58;18.30;45.80
36416;DHT22;22447;44.530;18.620;2024-01-25T11:51:24;18.90;46.40
36416;DHT22;22447;44.530;18.620;2024-01-25T11:53:50;18.70;46.40
36416;DHT22;22447;44.530;18.620;2024-01-25T11:56:23;19.30;46.20
36416;DHT22;22447;44.530;18.620;2024-01-25T11:58:50;20.60;45.20
36416;DHT22;22447;44.530;18.620;2024-01-25T12:01:17;20.70;42.50
36416;DHT22;22447;44.530;18.620;2024-01-25T12:03:43;20.00;41.70
36416;DHT22;22447;44.530;18.620;2024-01-25T12:06:09;18.90;43.60
36416;DHT22;22447;44.530;18.620;2024-01-25T12:08:36;18.80;45.00
36416;DHT22;22447;44.530;18.620;2024-01-25T12:11:09;18.90;44.60
36416;DHT22;22447;44.530;18.620;2024-01-25T12:13:36;19.30;44.20
36416;DHT22;22447;44.530;18.620;2024-01-25T12:16:04;20.10;43.50
36416;DHT22;22447;44.530;18.620;2024-01-25T12:18:30;20.20;39.30
36416;DHT22;22447;44.530;18.620;2024-01-25T12:21:00;19.90;42.50
36416;DHT22;22447;44.530;18.620;2024-01-25T12:23:38;19.30;41.60
36416;DHT22;22447;44.530;18.620;2024-01-25T12:26:07;18.80;43.40
36416;DHT22;22447;44.530;18.620;2024-01-25T12:28:34;18.90;42.80
36416;DHT22;22447;44.530;18.620;2024-01-25T12:31:01;18.70;43.00
36416;DHT22;22447;44.530;18.620;2024-01-25T12:33:29;18.50;43.20
36416;DHT22;22447;44.530;18.620;2024-01-25T12:35:55;18.90;43.10
36416;DHT22;22447;44.530;18.620;2024-01-25T12:38:22;19.00;42.80
36416;DHT22;22447;44.530;18.620;2024-01-25T12:40:48;19.00;41.70
36416;DHT22;22447;44.530;18.620;2024-01-25T12:43:16;18.80;42.10
36416;DHT22;22447;44.530;18.620;2024-01-25T12:45:43;18.90;42.10
36416;DHT22;22447;44.530;18.620;2024-01-25T12:48:09;18.30;41.70
36416;DHT22;22447;44.530;18.620;2024-01-25T12:50:36;18.10;42.30
36416;DHT22;22447;44.530;18.620;2024-01-25T12:53:02;17.70;42.80
36416;DHT22;22447;44.530;18.620;2024-01-25T12:55:29;17.90;43.70
36416;DHT22;22447;44.530;18.620;2024-01-25T12:57:58;17.90;42.60
36416;DHT22;22447;44.530;18.620;2024-01-25T13:00:25;18.00;42.60
36416;DHT22;22447;44.530;18.620;2024-01-25T13:02:51;18.10;41.90
36416;DHT22;22447;44.530;18.620;2024-01-25T13:05:17;17.50;41.40
36416;DHT22;22447;44.530;18.620;2024-01-25T13:07:43;17.40;42.10
36416;DHT22;22447;44.530;18.620;2024-01-25T13:10:09;17.20;41.70
36416;DHT22;22447;44.530;18.620;2024-01-25T13:12:37;17.20;41.90
36416;DHT22;22447;44.530;18.620;2024-01-25T13:15:07;17.30;42.10
36416;DHT22;22447;44.530;18.620;2024-01-25T13:17:36;17.10;41.80
36416;DHT22;22447;44.530;18.620;2024-01-25T13:20:05;17.40;42.00
36416;DHT22;22447;44.530;18.620;2024-01-25T13:22:35;18.00;41.90
36416;DHT22;22447;44.530;18.620;2024-01-25T13:25:01;18.20;40.90
36416;DHT22;22447;44.530;18.620;2024-01-25T13:27:28;17.80;39.30
36416;DHT22;22447;44.530;18.620;2024-01-25T13:29:54;17.70;38.40
36416;DHT22;22447;44.530;18.620;2024-01-25T13:32:20;18.40;39.60
36416;DHT22;22447;44.530;18.620;2024-01-25T13:34:46;18.40;38.20
36416;DHT22;22447;44.530;18.620;2024-01-25T13:37:12;18.70;38.80
36416;DHT22;22447;44.530;18.620;2024-01-25T13:39:38;18.70;35.80
36416;DHT22;22447;44.530;18.620;2024-01-25T13:42:04;18.50;36.90
36416;DHT22;22447;44.530;18.620;2024-01-25T13:44:30;18.30;35.80
36416;DHT22;22447;44.530;18.620;2024-01-25T13:46:56;18.50;35.80
36416;DHT22;22447;44.530;18.620;2024-01-25T13:49:22;18.30;36.20
36416;DHT22;22447;44.530;18.620;2024-01-25T13:51:48;18.00;37.10
36416;DHT22;22447;44.530;18.620;2024-01-25T13:54:14;18.10;38.00
36416;DHT22;22447;44.530;18.620;2024-01-25T13:56:39;18.10;38.60
36416;DHT22;22447;44.530;18.620;2024-01-25T13:59:06;17.50;39.20
36416;DHT22;22447;44.530;18.620;2024-01-25T14:01:33;17.40;38.50
36416;DHT22;22447;44.530;18.620;2024-01-25T14:03:59;17.40;39.20
36416;DHT22;22447;44.530;18.620;2024-01-25T14:06:24;17.70;38.70
36416;DHT22;22447;44.530;18.620;2024-01-25T14:08:51;17.90;35.90
36416;DHT22;22447;44.530;18.620;2024-01-25T14:11:17;17.70;35.60
36416;DHT22;22447;44.530;18.620;2024-01-25T14:13:43;17.40;35.20
36416;DHT22;22447;44.530;18.620;2024-01-25T14:16:08;17.50;35.60
36416;DHT22;22447;44.530;18.620;2024-01-25T14:18:39;17.70;34.00
36416;DHT22;22447;44.530;18.620;2024-01-25T14:21:06;17.70;33.70
36416;DHT22;22447;44.530;18.620;2024-01-25T14:23:32;17.90;34.80
36416;DHT22;22447;44.530;18.620;2024-01-25T14:25:58;17.20;33.20
36416;DHT22;22447;44.530;18.620;2024-01-25T14:28:23;17.20;35.00
36416;DHT22;22447;44.530;18.620;2024-01-25T14:30:49;17.90;33.80
36416;DHT22;22447;44.530;18.620;2024-01-25T14:33:15;17.60;32.80
36416;DHT22;22447;44.530;18.620;2024-01-25T14:35:41;17.50;34.40
36416;DHT22;22447;44.530;18.620;2024-01-25T14:38:07;17.70;32.50
36416;DHT22;22447;44.530;18.620;2024-01-25T14:40:33;17.90;34.20
36416;DHT22;22447;44.530;18.620;2024-01-25T14:42:59;18.00;32.20
36416;DHT22;22447;44.530;18.620;2024-01-25T14:45:26;17.50;31.40
36416;DHT22;22447;44.530;18.620;2024-01-25T14:47:51;17.30;32.00
36416;DHT22;22447;44.530;18.620;2024-01-25T14:50:17;17.20;32.60
36416;DHT22;22447;44.530;18.620;2024-01-25T14:52:43;17.10;33.80
36416;DHT22;22447;44.530;18.620;2024-01-25T14:55:09;17.20;34.40
36416;DHT22;22447;44.530;18.620;2024-01-25T14:57:35;17.50;32.50
36416;DHT22;22447;44.530;18.620;2024-01-25T15:00:01;17.40;33.80
36416;DHT22;22447;44.530;18.620;2024-01-25T15:02:27;17.30;34.00
36416;DHT22;22447;44.530;18.620;2024-01-25T15:04:53;17.00;35.80
36416;DHT22;22447;44.530;18.620;2024-01-25T15:07:19;17.00;35.60
36416;DHT22;22447;44.530;18.620;2024-01-25T15:09:49;17.00;35.50
36416;DHT22;22447;44.530;18.620;2024-01-25T15:12:15;17.10;36.20
36416;DHT22;22447;44.530;18.620;2024-01-25T15:14:41;17.00;36.40
36416;DHT22;22447;44.530;18.620;2024-01-25T15:17:07;17.20;36.60
36416;DHT22;22447;44.530;18.620;2024-01-25T15:19:33;17.30;35.40
36416;DHT22;22447;44.530;18.620;2024-01-25T15:21:59;16.90;37.30
36416;DHT22;22447;44.530;18.620;2024-01-25T15:24:25;17.00;35.30
36416;DHT22;22447;44.530;18.620;2024-01-25T15:26:52;16.60;33.40
36416;DHT22;22447;44.530;18.620;2024-01-25T15:29:17;15.90;32.80
36416;DHT22;22447;44.530;18.620;2024-01-25T15:31:43;15.00;38.10